Terminal Aerodrome Forecast
Issued by NWS Charleston, WV

Home | Current Version | Previous Version | Text Only | Print | Product List | Glossary On
Versions: 1 2 3 4 5 6 7 8 9 10 11 12 13 14 15 16 17 18 19 20 21 22 23 24 25 26 27 28
000
FTUS41 KRLX 302300 RRA
TAFPKB
TAF
KPKB 302347Z 3100/3124 32007KT P6SM SCT035
     FM310500 VRB03KT P6SM SCT025
     FM311100 00000KT P6SM SCT250
     FM311400 VRB03KT P6SM SCT025
     FM312000 23006KT P6SM BKN250=

USA.gov is the U.S. government's official web portal to all federal, state and local government web resources and services.